Time;durP1;ratioP1;P1;durP2;ratioP2;P2;SDS_P1;SDS_P2;PMS_P1;PMS_P2;Temp;Humidity;BMP_temperature;BMP_pressure;BME280_temperature;BME280_humidity;BME280_pressure;Samples;Min_cycle;Max_cycle;Signal;HPM_P1;HPM_P2
2022/07/07 00:00:58;;;;;;;4.35;1.90;;;;;;;23.00;36.05;98920.25;4489575;31;20104;-79
2022/07/07 00:03:23;;;;;;;4.37;1.70;;;;;;;23.04;35.85;98923.50;4504066;31;20111;-78
2022/07/07 00:05:49;;;;;;;5.57;1.50;;;;;;;23.12;35.89;98916.34;4504065;31;20088;-78
2022/07/07 00:08:14;;;;;;;3.85;1.60;;;;;;;23.13;35.92;98911.78;4489391;31;20143;-78
2022/07/07 00:10:40;;;;;;;3.70;1.62;;;;;;;23.10;36.08;98907.59;4504016;31;20424;-79
2022/07/07 00:13:05;;;;;;;3.67;1.45;;;;;;;23.10;35.76;98917.47;4489613;31;20379;-78
2022/07/07 00:15:31;;;;;;;4.97;1.60;;;;;;;23.07;35.80;98915.97;4503958;31;20438;-78
2022/07/07 00:17:56;;;;;;;4.12;1.50;;;;;;;23.06;35.73;98921.50;4503954;31;20439;-79
2022/07/07 00:20:22;;;;;;;3.33;1.50;;;;;;;23.01;35.82;98921.13;4503884;31;20381;-79
2022/07/07 00:22:47;;;;;;;5.00;1.75;;;;;;;23.03;35.85;98917.28;4503968;31;20083;-79
2022/07/07 00:25:12;;;;;;;3.87;1.60;;;;;;;23.04;36.06;98918.13;4503897;31;20163;-79
2022/07/07 00:27:38;;;;;;;4.78;1.67;;;;;;;23.00;36.21;98922.09;4503677;31;20110;-79
2022/07/07 00:30:05;;;;;;;3.83;1.50;;;;;;;23.06;36.25;98916.13;4503849;31;20443;-79
2022/07/07 00:32:30;;;;;;;3.42;1.50;;;;;;;23.03;36.03;98916.47;4503953;31;20168;-78
2022/07/07 00:34:55;;;;;;;4.03;1.70;;;;;;;23.01;35.64;98910.37;4503818;31;20092;-80
2022/07/07 00:37:21;;;;;;;2.83;1.50;;;;;;;22.94;35.69;98913.69;4503771;31;20104;-80
2022/07/07 00:39:46;;;;;;;4.05;1.52;;;;;;;23.01;35.74;98913.06;4503807;31;20099;-79
2022/07/07 00:42:15;;;;;;;4.03;1.52;;;;;;;22.97;35.76;98908.00;4503911;31;20096;-79
2022/07/07 00:44:42;;;;;;;4.12;1.52;;;;;;;23.00;35.80;98914.88;4503611;31;20087;-79
2022/07/07 00:47:08;;;;;;;4.93;1.50;;;;;;;23.02;36.24;98917.41;4503677;31;20409;-79
2022/07/07 00:49:35;;;;;;;4.47;1.60;;;;;;;23.02;36.37;98926.31;4476010;31;20108;-79
2022/07/07 00:52:00;;;;;;;4.30;1.65;;;;;;;23.02;36.09;98920.09;4489196;31;20172;-79
2022/07/07 00:54:26;;;;;;;3.85;1.80;;;;;;;22.93;36.11;98919.22;4503452;31;20100;-79
2022/07/07 00:56:51;;;;;;;4.32;1.70;;;;;;;22.93;36.49;98930.81;4503415;31;20143;-79
2022/07/07 00:59:17;;;;;;;5.22;1.90;;;;;;;22.94;36.72;98932.47;4503377;31;20504;-79
2022/07/07 01:01:43;;;;;;;4.80;1.75;;;;;;;22.91;36.98;98922.06;4503293;31;20091;-79
2022/07/07 01:04:11;;;;;;;4.57;1.70;;;;;;;22.91;37.26;98921.25;4503321;31;20321;-79
2022/07/07 01:06:36;;;;;;;5.45;1.70;;;;;;;22.90;37.32;98919.53;4503148;31;20156;-79
2022/07/07 01:09:02;;;;;;;3.17;1.55;;;;;;;22.90;37.38;98922.22;4503398;31;20428;-79
2022/07/07 01:11:44;;;;;;;3.37;1.65;;;;;;;22.90;37.47;98919.53;4489029;31;20172;-79
2022/07/07 01:14:09;;;;;;;4.18;1.60;;;;;;;22.88;37.48;98926.91;4503337;31;20515;-79
2022/07/07 01:16:34;;;;;;;4.22;1.83;;;;;;;22.83;37.28;98932.78;4503328;31;20110;-79
2022/07/07 01:19:00;;;;;;;4.32;1.70;;;;;;;22.82;37.36;98927.56;4503219;31;20498;-79
2022/07/07 01:21:26;;;;;;;3.87;1.80;;;;;;;22.77;37.44;98925.31;4503205;31;20097;-79
2022/07/07 01:23:51;;;;;;;3.95;1.87;;;;;;;22.78;37.05;98929.72;4488908;31;20126;-79
2022/07/07 01:26:17;;;;;;;4.35;1.70;;;;;;;22.37;37.05;98932.13;4503084;31;20083;-79
2022/07/07 01:28:42;;;;;;;5.03;1.60;;;;;;;22.53;36.93;98928.72;4503046;31;20096;-79
2022/07/07 01:31:08;;;;;;;3.97;1.60;;;;;;;22.41;37.30;98929.94;4488873;31;20504;-79
2022/07/07 01:33:34;;;;;;;6.12;1.90;;;;;;;22.55;37.39;98924.03;4503052;31;20546;-79
2022/07/07 01:35:59;;;;;;;4.90;1.70;;;;;;;22.57;37.45;98924.72;4503140;31;20088;-79
2022/07/07 01:38:25;;;;;;;3.15;1.42;;;;;;;22.55;37.53;98926.72;4503035;31;20371;-78
2022/07/07 01:40:50;;;;;;;5.10;1.67;;;;;;;22.58;37.63;98921.03;4503075;31;20084;-79
2022/07/07 01:43:16;;;;;;;4.37;2.00;;;;;;;22.58;37.57;98919.19;4503090;31;20088;-79
2022/07/07 01:45:41;;;;;;;4.53;1.90;;;;;;;22.56;37.41;98921.19;4503012;31;20104;-79
2022/07/07 01:48:07;;;;;;;4.12;1.70;;;;;;;22.58;37.42;98926.41;4503007;31;20100;-78
2022/07/07 01:50:32;;;;;;;5.05;2.00;;;;;;;22.57;37.61;98935.44;4488693;31;20108;-79
2022/07/07 01:52:58;;;;;;;5.15;2.03;;;;;;;22.54;37.75;98928.56;4502940;31;20103;-79
2022/07/07 01:55:23;;;;;;;4.93;1.80;;;;;;;22.26;38.17;98930.50;4488780;31;20075;-79
2022/07/07 01:57:49;;;;;;;7.00;1.70;;;;;;;22.44;37.76;98926.97;4502998;31;20126;-79
2022/07/07 02:00:16;;;;;;;3.85;1.90;;;;;;;22.27;37.39;98931.34;4503067;31;20148;-79
2022/07/07 02:02:41;;;;;;;4.20;2.03;;;;;;;22.36;37.40;98931.25;4503041;31;20114;-79
2022/07/07 02:05:07;;;;;;;4.22;1.67;;;;;;;22.37;37.72;98930.28;4488531;31;20077;-79
2022/07/07 02:07:34;;;;;;;3.95;1.70;;;;;;;22.42;38.08;98923.59;4488511;31;20127;-79
2022/07/07 02:10:00;;;;;;;5.18;1.98;;;;;;;22.45;37.71;98916.06;4503286;31;20530;-79
2022/07/07 02:12:26;;;;;;;3.97;1.60;;;;;;;22.44;38.09;98924.28;4488397;31;20092;-79
2022/07/07 02:14:51;;;;;;;4.00;1.80;;;;;;;22.47;38.39;98921.28;4502918;31;20103;-79
2022/07/07 02:17:17;;;;;;;5.43;2.00;;;;;;;22.46;38.24;98925.78;4502128;31;20421;-79
2022/07/07 02:19:43;;;;;;;4.62;2.10;;;;;;;22.46;38.03;98925.78;4502854;31;20163;-80
2022/07/07 02:22:09;;;;;;;5.30;2.03;;;;;;;22.50;37.95;98924.50;4502870;31;20092;-80
2022/07/07 02:24:34;;;;;;;4.45;1.70;;;;;;;22.22;37.76;98928.28;4488507;31;20140;-80
2022/07/07 02:27:00;;;;;;;6.00;1.73;;;;;;;22.37;38.20;98926.75;4488376;31;20112;-79
2022/07/07 02:29:25;;;;;;;4.37;2.00;;;;;;;22.39;38.39;98922.06;4502852;31;20378;-79
2022/07/07 02:31:50;;;;;;;4.10;1.92;;;;;;;22.41;38.54;98925.44;4502685;31;20088;-80
2022/07/07 02:34:16;;;;;;;6.43;2.05;;;;;;;22.45;38.46;98918.75;4502568;31;20102;-79
2022/07/07 02:36:41;;;;;;;4.00;1.70;;;;;;;22.42;38.57;98926.28;4502640;31;20381;-79
2022/07/07 02:39:07;;;;;;;5.37;1.98;;;;;;;22.41;38.60;98920.06;4488363;31;20139;-79
2022/07/07 02:41:32;;;;;;;4.12;2.03;;;;;;;22.35;38.65;98924.22;4488274;31;20114;-79
2022/07/07 02:43:58;;;;;;;5.68;2.30;;;;;;;22.41;38.63;98924.56;4488019;31;20374;-79
2022/07/07 02:46:23;;;;;;;5.72;1.95;;;;;;;22.40;38.75;98921.06;4502622;31;20112;-79
2022/07/07 02:48:49;;;;;;;5.20;1.98;;;;;;;22.38;38.88;98923.06;4502477;31;20144;-79
2022/07/07 02:51:14;;;;;;;6.70;2.35;;;;;;;22.40;39.07;98925.59;4488330;31;20116;-79
2022/07/07 02:53:40;;;;;;;4.72;2.00;;;;;;;22.30;38.86;98923.00;4502396;31;20088;-79
2022/07/07 02:56:05;;;;;;;5.07;2.10;;;;;;;22.35;38.84;98920.69;4502388;31;20395;-79
2022/07/07 02:58:31;;;;;;;5.80;2.10;;;;;;;22.41;38.87;98921.88;4474894;31;20495;-79
2022/07/07 03:00:57;;;;;;;4.47;2.03;;;;;;;22.41;38.83;98921.88;4502470;31;20435;-79
2022/07/07 03:03:22;;;;;;;6.75;2.25;;;;;;;22.43;39.04;98912.69;4502296;31;20107;-79
2022/07/07 03:05:48;;;;;;;5.28;2.12;;;;;;;22.44;39.10;98925.09;4502404;31;20384;-79
2022/07/07 03:08:14;;;;;;;5.62;2.03;;;;;;;22.47;39.21;98919.44;4502078;31;20092;-79
2022/07/07 03:10:39;;;;;;;6.20;2.30;;;;;;;22.47;39.14;98922.12;4502344;31;20105;-79
2022/07/07 03:13:04;;;;;;;5.47;2.10;;;;;;;22.53;39.07;98920.66;4502266;31;20083;-79
2022/07/07 03:15:30;;;;;;;6.03;2.35;;;;;;;22.60;38.83;98918.16;4502098;31;20153;-79
2022/07/07 03:17:56;;;;;;;5.03;2.17;;;;;;;22.61;38.86;98919.88;4502172;31;20091;-79
2022/07/07 03:20:21;;;;;;;4.45;1.98;;;;;;;22.65;38.82;98923.91;4502086;31;20106;-79
2022/07/07 03:22:47;;;;;;;5.95;2.10;;;;;;;22.71;38.96;98916.06;4487730;31;20104;-79
2022/07/07 03:25:12;;;;;;;6.68;2.30;;;;;;;22.76;38.99;98921.81;4502067;31;20118;-79
2022/07/07 03:27:38;;;;;;;5.80;2.10;;;;;;;22.81;39.18;98920.50;4501908;31;20121;-79
2022/07/07 03:30:05;;;;;;;5.25;2.17;;;;;;;22.85;39.19;98930.78;4489418;31;20348;-80
2022/07/07 03:32:30;;;;;;;6.18;2.15;;;;;;;22.92;39.09;98930.97;4503986;31;20088;-79
2022/07/07 03:34:56;;;;;;;8.60;2.45;;;;;;;22.99;39.11;98923.12;4489671;31;20096;-79
2022/07/07 03:37:22;;;;;;;9.25;2.60;;;;;;;23.06;39.19;98926.87;4489658;31;20100;-79
2022/07/07 03:39:47;;;;;;;6.68;2.30;;;;;;;23.13;39.13;98915.31;4489640;31;20393;-79
2022/07/07 03:42:13;;;;;;;6.32;2.47;;;;;;;23.21;39.06;98927.94;4489663;31;20140;-80
2022/07/07 03:44:38;;;;;;;7.07;2.40;;;;;;;23.27;39.07;98913.88;4504042;31;20154;-79
2022/07/07 03:47:04;;;;;;;6.47;2.40;;;;;;;23.34;38.88;98914.06;4489351;31;20096;-79
2022/07/07 03:49:30;;;;;;;7.40;2.45;;;;;;;23.43;38.73;98913.09;4503907;31;20083;-79
2022/07/07 03:51:55;;;;;;;5.70;2.37;;;;;;;23.51;38.19;98905.06;4489474;31;20411;-79
2022/07/07 03:54:21;;;;;;;6.78;2.33;;;;;;;23.62;37.83;98913.81;4503732;31;20100;-79
2022/07/07 03:56:46;;;;;;;5.65;2.58;;;;;;;23.73;37.85;98914.34;4503875;31;20126;-80
2022/07/07 03:59:12;;;;;;;6.43;2.45;;;;;;;23.92;37.75;98915.09;4503856;31;20084;-79
2022/07/07 04:01:37;;;;;;;6.12;2.50;;;;;;;23.97;37.72;98917.28;4504032;31;20373;-79
2022/07/07 04:04:05;;;;;;;6.18;2.60;;;;;;;24.14;37.14;98918.97;4504122;31;20087;-80
2022/07/07 04:06:31;;;;;;;;;;;;;;;24.25;36.81;98918.63;4504463;31;20114;-80
2022/07/07 04:08:57;;;;;;;7.20;2.62;;;;;;;24.50;36.42;98910.56;4476339;31;19994;-79
2022/07/07 04:11:22;;;;;;;6.37;2.67;;;;;;;24.47;37.90;98917.13;4489684;31;20442;-78
2022/07/07 04:13:48;;;;;;;6.32;2.37;;;;;;;24.52;38.19;98909.38;4489385;31;20112;-79
2022/07/07 04:16:13;;;;;;;4.75;1.98;;;;;;;24.64;37.78;98912.56;4489522;31;20209;-79
2022/07/07 04:18:38;;;;;;;9.27;2.20;;;;;;;24.71;37.50;98908.19;4489397;31;20110;-79
2022/07/07 04:21:04;;;;;;;5.95;2.15;;;;;;;24.75;37.72;98913.25;4503640;31;20116;-79
2022/07/07 04:23:29;;;;;;;5.82;2.15;;;;;;;24.81;37.04;98912.56;4489406;31;20108;-79
2022/07/07 04:25:55;;;;;;;6.45;2.10;;;;;;;24.91;36.07;98913.19;4503637;31;20089;-79
2022/07/07 04:28:20;;;;;;;8.55;2.35;;;;;;;25.03;35.56;98903.72;4503534;31;20114;-79
2022/07/07 04:30:46;;;;;;;7.82;2.60;;;;;;;25.37;34.13;98899.06;4503559;31;20111;-79
2022/07/07 04:33:11;;;;;;;6.47;2.30;;;;;;;25.41;34.16;98898.53;4503613;31;20096;-79
2022/07/07 04:35:37;;;;;;;32.60;3.90;;;;;;;25.47;35.96;98902.38;4489211;31;20104;-79
2022/07/07 04:38:02;;;;;;;6.07;2.40;;;;;;;25.64;36.24;98903.13;4503511;31;20084;-79
2022/07/07 04:40:28;;;;;;;7.60;2.08;;;;;;;25.80;36.03;98900.31;4488684;31;20099;-79
2022/07/07 04:42:53;;;;;;;5.65;2.05;;;;;;;25.95;35.43;98903.13;4489225;31;20360;-79
2022/07/07 04:45:19;;;;;;;6.80;2.47;;;;;;;26.19;34.11;98902.13;4503397;31;20359;-79
2022/07/07 04:47:44;;;;;;;4.43;2.00;;;;;;;26.20;34.00;98900.25;4488967;31;20165;-79
2022/07/07 04:50:12;;;;;;;7.28;2.30;;;;;;;26.18;33.36;98900.44;4503353;31;20102;-79
2022/07/07 04:52:38;;;;;;;6.97;2.37;;;;;;;26.34;32.99;98904.00;4503415;31;20092;-80
2022/07/07 04:55:04;;;;;;;3.80;2.00;;;;;;;26.41;32.51;98900.41;4489191;31;20173;-79
2022/07/07 04:57:30;;;;;;;5.18;2.35;;;;;;;26.55;31.69;98908.72;4489070;31;20088;-79
2022/07/07 04:59:56;;;;;;;12.18;2.55;;;;;;;26.70;31.58;98903.37;4503309;31;20080;-79
2022/07/07 05:02:21;;;;;;;13.23;2.65;;;;;;;26.77;30.89;98901.59;4489051;31;20092;-79
2022/07/07 05:04:47;;;;;;;5.07;2.12;;;;;;;26.64;32.02;98905.78;4503386;31;20106;-79
2022/07/07 05:07:12;;;;;;;74.07;6.72;;;;;;;26.71;32.12;98905.03;4503022;31;20087;-79
2022/07/07 05:09:38;;;;;;;17.75;3.05;;;;;;;26.83;31.28;98908.94;4503269;31;20114;-79
2022/07/07 05:12:04;;;;;;;13.75;2.78;;;;;;;26.94;31.14;98902.25;4488925;31;20119;-79
2022/07/07 05:14:29;;;;;;;11.43;2.33;;;;;;;27.01;31.37;98911.31;4503349;31;20096;-79
2022/07/07 05:16:55;;;;;;;9.00;2.50;;;;;;;27.15;31.22;98913.16;4503292;31;20095;-79
2022/07/07 05:19:21;;;;;;;5.55;2.20;;;;;;;27.30;31.01;98913.19;4503197;31;20481;-79
2022/07/07 05:21:47;;;;;;;4.60;2.05;;;;;;;27.41;30.68;98901.88;4488914;31;20096;-79
2022/07/07 05:24:12;;;;;;;8.45;2.50;;;;;;;27.40;30.75;98910.19;4503384;31;20107;-79
2022/07/07 05:26:38;;;;;;;9.73;2.45;;;;;;;27.52;30.64;98900.53;4503151;31;20118;-79
2022/07/07 05:29:03;;;;;;;6.43;2.12;;;;;;;27.70;30.37;98907.41;4503166;31;20096;-79
2022/07/07 05:31:28;;;;;;;4.53;2.10;;;;;;;27.84;30.25;98903.81;4497739;31;20100;-78
2022/07/07 05:33:54;;;;;;;7.22;2.60;;;;;;;27.89;30.32;98905.97;4494461;31;20119;-80
2022/07/07 05:36:19;;;;;;;6.78;2.10;;;;;;;27.98;29.81;98904.81;4494356;31;20135;-80
2022/07/07 05:38:45;;;;;;;9.75;2.30;;;;;;;28.16;29.72;98904.34;4500201;31;20140;-80
2022/07/07 05:41:11;;;;;;;7.78;2.47;;;;;;;28.11;29.27;98902.25;4495554;31;20118;-80
2022/07/07 05:43:36;;;;;;;5.18;2.00;;;;;;;28.11;29.33;98904.13;4493970;31;20100;-78
2022/07/07 05:46:02;;;;;;;6.15;2.30;;;;;;;28.15;29.32;98906.22;4494505;31;20127;-79
2022/07/07 05:48:27;;;;;;;4.57;2.03;;;;;;;28.25;28.67;98914.03;4481385;31;20393;-80
2022/07/07 05:50:53;;;;;;;6.80;2.30;;;;;;;28.26;29.13;98907.59;4493281;31;20482;-80
2022/07/07 05:53:18;;;;;;;10.77;2.80;;;;;;;28.46;28.29;98906.91;4494323;31;20421;-81
2022/07/07 05:55:43;;;;;;;6.53;2.20;;;;;;;28.42;28.79;98898.34;4494595;31;20431;-78
2022/07/07 05:58:09;;;;;;;11.23;2.30;;;;;;;28.53;28.97;98903.25;4493607;31;20418;-79
2022/07/07 06:00:34;;;;;;;25.52;4.30;;;;;;;28.61;28.27;98903.09;4485893;32;20151;-80
2022/07/07 06:03:00;;;;;;;6.35;2.28;;;;;;;28.67;28.77;98898.78;4485992;32;20119;-80
2022/07/07 06:05:25;;;;;;;5.32;2.08;;;;;;;28.74;27.60;98896.94;4492508;31;20096;-76
2022/07/07 06:07:51;;;;;;;5.85;2.17;;;;;;;28.70;28.00;98897.53;4493615;31;20328;-80
2022/07/07 06:10:16;;;;;;;10.65;2.53;;;;;;;28.63;28.54;98897.50;4495225;31;20410;-81
2022/07/07 06:12:43;;;;;;;11.05;2.30;;;;;;;28.71;28.77;98900.03;4494069;31;20381;-79
2022/07/07 06:15:09;;;;;;;7.00;2.15;;;;;;;28.78;28.27;98900.94;4494041;31;20114;-78
2022/07/07 06:17:35;;;;;;;10.65;2.47;;;;;;;28.83;28.28;98905.75;4495211;31;20137;-81
2022/07/07 06:20:01;;;;;;;8.02;2.25;;;;;;;28.97;28.12;98902.06;4493715;31;20096;-81
2022/07/07 06:22:27;;;;;;;6.55;2.30;;;;;;;29.13;28.13;98900.09;4494227;31;20152;-81
2022/07/07 06:24:53;;;;;;;5.72;2.25;;;;;;;29.18;27.86;98905.75;4481264;31;20101;-81
2022/07/07 06:27:19;;;;;;;5.90;2.33;;;;;;;29.33;27.71;98901.03;4491984;31;20111;-79
2022/07/07 06:29:45;;;;;;;5.25;2.20;;;;;;;29.34;27.84;98891.00;4492576;31;20088;-80
2022/07/07 06:32:10;;;;;;;6.75;2.45;;;;;;;29.34;27.72;98902.72;4493516;31;20450;-81
2022/07/07 06:34:36;;;;;;;8.07;2.30;;;;;;;29.48;27.18;98906.31;4493043;31;20111;-81
2022/07/07 06:37:02;;;;;;;7.82;2.47;;;;;;;29.56;26.75;98903.44;4486842;31;20089;-82
2022/07/07 06:39:27;;;;;;;7.68;2.30;;;;;;;29.50;26.96;98906.13;4485547;32;20104;-81
2022/07/07 06:41:53;;;;;;;6.85;2.20;;;;;;;29.54;26.91;98901.97;4485935;32;20115;-83
2022/07/07 06:44:18;;;;;;;24.95;4.15;;;;;;;29.67;26.53;98899.28;4486912;31;20084;-84
2022/07/07 06:46:43;;;;;;;8.70;2.33;;;;;;;29.70;26.47;98898.03;4486947;32;20076;-80
2022/07/07 06:49:09;;;;;;;5.25;1.83;;;;;;;29.77;26.19;98898.94;4487008;31;20096;-80
2022/07/07 06:51:35;;;;;;;5.93;2.10;;;;;;;29.88;25.84;98892.91;4485618;32;20498;-80
2022/07/07 06:54:00;;;;;;;9.75;2.30;;;;;;;29.88;26.08;98892.91;4472641;32;20088;-79
2022/07/07 06:56:26;;;;;;;10.88;2.60;;;;;;;29.97;25.72;98897.06;4486861;31;20080;-79
2022/07/07 06:58:51;;;;;;;7.37;2.10;;;;;;;29.98;26.00;98895.22;4486882;31;20153;-80
2022/07/07 07:01:17;;;;;;;11.45;4.32;;;;;;;30.14;25.80;98894.81;4486808;31;20110;-80
2022/07/07 07:03:42;;;;;;;13.68;2.58;;;;;;;30.19;25.52;98891.44;4472227;32;20360;-78
2022/07/07 07:06:08;;;;;;;7.95;2.55;;;;;;;30.13;25.48;98893.16;4486811;32;20325;-80
2022/07/07 07:08:33;;;;;;;8.18;2.45;;;;;;;30.19;25.43;98894.16;4485089;32;20541;-80
2022/07/07 07:10:59;;;;;;;14.00;3.10;;;;;;;30.21;25.20;98885.81;4486445;31;20088;-80
2022/07/07 07:13:25;;;;;;;7.62;2.42;;;;;;;30.23;25.32;98894.59;4485293;32;20138;-80
2022/07/07 07:15:50;;;;;;;8.32;2.30;;;;;;;30.36;24.99;98892.75;4486376;31;20076;-80
2022/07/07 07:18:16;;;;;;;6.75;2.00;;;;;;;30.34;24.90;98900.28;4486482;31;20435;-80
2022/07/07 07:20:41;;;;;;;10.40;2.37;;;;;;;30.51;24.57;98899.84;4486386;31;20110;-80
2022/07/07 07:23:07;;;;;;;8.68;2.17;;;;;;;30.50;24.75;98899.03;4486201;31;20344;-80
2022/07/07 07:25:32;;;;;;;7.82;2.37;;;;;;;30.64;24.56;98890.88;4485279;32;20084;-80
2022/07/07 07:27:58;;;;;;;9.98;2.35;;;;;;;30.64;25.05;98897.13;4486408;31;20089;-80
2022/07/07 07:30:23;;;;;;;19.55;3.50;;;;;;;30.60;25.50;98893.16;4472078;32;20148;-79
2022/07/07 07:32:49;;;;;;;21.08;3.17;;;;;;;30.66;25.23;98892.31;4486512;31;20080;-81
2022/07/07 07:35:15;;;;;;;8.75;2.53;;;;;;;30.75;25.35;98882.03;4486349;31;20112;-80
2022/07/07 07:37:41;;;;;;;10.07;2.50;;;;;;;30.74;25.19;98883.09;4486529;31;20475;-80
2022/07/07 07:40:07;;;;;;;8.40;2.30;;;;;;;30.83;24.80;98890.00;4486397;32;20092;-80
2022/07/07 07:42:33;;;;;;;6.47;2.22;;;;;;;30.88;25.17;98884.72;4486349;31;20110;-80
2022/07/07 07:45:11;;;;;;;6.78;2.25;;;;;;;30.92;24.91;98887.91;4485007;32;20124;-78
2022/07/07 07:47:44;;;;;;;6.97;2.20;;;;;;;30.97;24.39;98885.38;4486206;31;20118;-80
2022/07/07 07:50:13;;;;;;;4.32;2.00;;;;;;;31.07;24.63;98879.50;4486396;31;20096;-80
2022/07/07 07:52:39;;;;;;;9.60;2.45;;;;;;;31.08;24.44;98881.16;4484920;32;20091;-82
2022/07/07 07:55:09;;;;;;;6.93;2.20;;;;;;;31.04;24.59;98883.50;4486248;31;20428;-80
2022/07/07 07:57:36;;;;;;;5.50;2.58;;;;;;;31.10;24.68;98882.63;4486035;31;20147;-81
2022/07/07 08:00:02;;;;;;;6.87;2.17;;;;;;;31.31;24.24;98881.50;4485956;31;20531;-80
2022/07/07 08:02:28;;;;;;;6.28;2.15;;;;;;;31.15;24.21;98884.69;4484810;32;20096;-81
2022/07/07 08:04:54;;;;;;;8.57;2.37;;;;;;;31.01;24.28;98888.50;4485936;31;20080;-79
2022/07/07 08:07:19;;;;;;;7.25;2.25;;;;;;;31.06;23.20;98888.69;4485743;31;20097;-81
2022/07/07 08:09:45;;;;;;;8.52;2.20;;;;;;;30.65;23.58;98887.91;4484747;32;20136;-80
2022/07/07 08:12:11;;;;;;;5.78;2.20;;;;;;;30.54;24.35;98886.69;4485790;31;20133;-81
2022/07/07 08:14:37;;;;;;;5.83;2.47;;;;;;;30.56;24.09;98890.03;4486200;31;20428;-81
2022/07/07 08:17:02;;;;;;;7.45;2.10;;;;;;;30.58;24.50;98885.22;4486975;32;20089;-81
2022/07/07 08:19:28;;;;;;;7.95;2.10;;;;;;;30.65;24.51;98887.91;4487088;32;20096;-81
2022/07/07 08:21:53;;;;;;;5.28;1.87;;;;;;;30.72;24.83;98890.63;4486528;32;20119;-80
2022/07/07 08:24:19;;;;;;;7.30;2.17;;;;;;;30.66;24.50;98889.59;4487710;31;20140;-80
2022/07/07 08:26:44;;;;;;;4.93;2.08;;;;;;;30.58;24.33;98889.81;4487825;31;20392;-80
2022/07/07 08:29:10;;;;;;;7.68;2.08;;;;;;;30.62;24.23;98887.50;4487836;32;20360;-80
2022/07/07 08:31:35;;;;;;;5.40;2.10;;;;;;;30.82;24.46;98884.75;4487794;31;20089;-79
2022/07/07 08:34:01;;;;;;;4.65;1.92;;;;;;;30.80;24.89;98884.12;4486576;32;20196;-80
2022/07/07 08:36:26;;;;;;;5.95;2.22;;;;;;;30.81;24.42;98883.94;4487552;31;20088;-79
2022/07/07 08:38:52;;;;;;;6.07;2.30;;;;;;;30.87;24.29;98883.06;4487700;31;20132;-79
2022/07/07 08:41:18;;;;;;;8.07;1.92;;;;;;;30.86;24.56;98884.09;4487817;31;20092;-80
2022/07/07 08:43:43;;;;;;;11.57;3.97;;;;;;;30.88;24.46;98879.28;4486465;32;20367;-77
2022/07/07 08:46:09;;;;;;;6.75;2.15;;;;;;;30.81;24.17;98883.94;4486348;32;20097;-77
2022/07/07 08:48:35;;;;;;;6.03;2.55;;;;;;;30.77;24.30;98880.78;4486311;32;20131;-77
2022/07/07 08:51:04;;;;;;;5.70;2.40;;;;;;;30.80;24.32;98882.25;4487676;31;20467;-77
2022/07/07 08:53:33;;;;;;;6.55;2.40;;;;;;;30.84;24.29;98875.31;4487631;31;20076;-77
2022/07/07 08:56:01;;;;;;;7.68;2.20;;;;;;;30.80;24.14;98867.81;4487546;31;20097;-77
2022/07/07 08:58:27;;;;;;;6.35;2.30;;;;;;;30.92;23.78;98863.41;4486443;32;20093;-77
2022/07/07 09:00:53;;;;;;;6.72;2.40;;;;;;;31.00;23.75;98867.78;4486253;32;20080;-77
2022/07/07 09:03:18;;;;;;;6.18;1.90;;;;;;;31.07;23.35;98868.59;4486441;32;20133;-77
2022/07/07 09:05:44;;;;;;;5.12;2.10;;;;;;;30.92;23.81;98861.53;4486237;32;20405;-77
2022/07/07 09:08:20;;;;;;;5.30;1.95;;;;;;;31.15;23.36;98865.63;4487302;31;20123;-76
2022/07/07 09:10:46;;;;;;;8.25;2.30;;;;;;;31.29;23.26;98858.25;4484893;32;20104;-76
2022/07/07 09:13:28;;;;;;;5.20;2.00;;;;;;;31.58;23.30;98851.44;4476757;31;20100;-77
2022/07/07 09:16:03;;;;;;;7.50;2.40;;;;;;;31.91;22.67;98858.53;4485978;32;20127;-77
2022/07/07 09:18:40;;;;;;;10.88;2.87;;;;;;;31.89;22.47;98849.75;4499045;31;20481;-77
2022/07/07 09:21:07;;;;;;;5.45;1.98;;;;;;;31.93;22.40;98851.84;4483324;32;20126;-78
2022/07/07 09:23:33;;;;;;;6.25;2.03;;;;;;;31.94;22.46;98849.94;4459015;32;20149;-78
2022/07/07 09:26:00;;;;;;;5.30;2.00;;;;;;;31.80;22.62;98857.37;4487331;32;20149;-77
2022/07/07 09:28:26;;;;;;;6.03;2.20;;;;;;;31.77;22.55;98854.25;4471326;32;20153;-78
2022/07/07 09:30:53;;;;;;;9.27;2.40;;;;;;;31.68;22.82;98851.81;4472553;32;20092;-77
2022/07/07 09:33:21;;;;;;;8.30;2.70;;;;;;;31.68;22.58;98853.66;4486745;32;20092;-78
2022/07/07 09:38:32;;;;;;;7.68;2.12;;;;;;;31.71;22.40;98850.53;4487419;32;20127;-77
2022/07/07 09:41:03;;;;;;;5.07;1.92;;;;;;;31.79;22.59;98860.31;4487334;32;20096;-78
2022/07/07 09:43:44;;;;;;;7.20;2.20;;;;;;;31.91;22.59;98861.28;4487347;32;20080;-77
2022/07/07 09:46:13;;;;;;;5.10;1.90;;;;;;;31.88;22.47;98864.47;4487679;32;20119;-77
2022/07/07 09:48:41;;;;;;;4.65;1.80;;;;;;;31.66;22.64;98862.09;4459955;32;20532;-77
2022/07/07 09:51:32;;;;;;;7.95;2.20;;;;;;;31.55;22.98;98865.50;4473005;32;20616;-78
2022/07/07 09:54:12;;;;;;;5.47;1.80;;;;;;;31.45;23.30;98859.66;4487144;32;20083;-77
2022/07/07 09:56:45;;;;;;;5.62;2.03;;;;;;;31.17;23.67;98869.81;4473478;32;20116;-78
2022/07/07 09:59:16;;;;;;;6.57;2.05;;;;;;;31.13;23.98;98865.84;4487629;32;20157;-77
2022/07/07 10:01:43;;;;;;;10.15;2.28;;;;;;;31.14;23.79;98864.81;4473417;32;20088;-77
2022/07/07 10:04:11;;;;;;;3.55;1.80;;;;;;;31.13;24.09;98862.31;4473136;32;20110;-77
2022/07/07 10:06:39;;;;;;;8.43;2.10;;;;;;;30.95;23.93;98858.37;4487468;32;20448;-77
2022/07/07 10:09:06;;;;;;;7.45;2.20;;;;;;;30.97;23.56;98858.19;4487168;32;20518;-77
2022/07/07 10:11:36;;;;;;;6.32;1.90;;;;;;;30.94;23.22;98859.41;4487398;32;20535;-77
2022/07/07 10:14:09;;;;;;;4.43;1.80;;;;;;;30.83;23.36;98870.09;4487387;32;20110;-77
2022/07/07 10:16:36;;;;;;;4.20;1.80;;;;;;;30.66;23.44;98864.28;4487442;32;20093;-78
2022/07/07 10:19:01;;;;;;;;;;;;;;;30.57;22.90;98858.22;4473220;32;20103;-78
2022/07/07 10:21:27;;;;;;;4.60;1.95;;;;;;;30.64;23.44;98858.25;4487086;32;20004;-78
2022/07/07 10:23:53;;;;;;;4.72;1.90;;;;;;;30.62;23.57;98860.31;4486892;32;20076;-77
2022/07/07 10:26:34;;;;;;;6.03;1.73;;;;;;;30.44;23.48;98859.06;4472776;32;20166;-77
2022/07/07 10:29:00;;;;;;;4.15;1.90;;;;;;;30.32;23.86;98858.88;4472996;32;20119;-77
2022/07/07 10:31:28;;;;;;;5.55;2.10;;;;;;;29.98;24.12;98860.72;4487374;32;20115;-77
2022/07/07 10:34:02;;;;;;;6.72;2.10;;;;;;;30.14;24.29;98866.81;4486977;32;20103;-78
2022/07/07 10:36:47;;;;;;;6.82;2.20;;;;;;;30.31;24.01;98861.78;4472732;32;20467;-77
2022/07/07 10:39:22;;;;;;;6.03;2.10;;;;;;;30.45;23.82;98851.78;4486218;32;20133;-77
2022/07/07 10:41:54;;;;;;;5.80;2.03;;;;;;;30.58;24.12;98855.31;4472672;32;20132;-78
2022/07/07 10:44:20;;;;;;;5.22;1.90;;;;;;;30.60;23.66;98846.09;4486865;32;20499;-78
2022/07/07 10:47:02;;;;;;;3.83;1.87;;;;;;;30.72;24.27;98847.12;4486635;32;20183;-77
2022/07/07 10:49:41;;;;;;;8.52;2.28;;;;;;;30.81;23.39;98839.56;4486701;32;20119;-77
2022/07/07 10:52:12;;;;;;;6.03;1.80;;;;;;;30.68;23.73;98835.00;4486563;32;20135;-78
2022/07/07 10:54:43;;;;;;;6.43;1.70;;;;;;;30.57;23.97;98839.19;4472354;32;20103;-77
2022/07/07 10:57:09;;;;;;;6.35;1.70;;;;;;;30.59;24.29;98828.94;4472478;32;20139;-77
2022/07/07 11:00:01;;;;;;;6.10;2.10;;;;;;;30.71;24.18;98831.84;4486677;32;20115;-77
2022/07/07 11:02:47;;;;;;;5.97;2.20;;;;;;;30.79;24.33;98831.62;4486647;32;20096;-77
2022/07/07 11:05:15;;;;;;;11.30;2.45;;;;;;;30.54;24.24;98826.06;4486591;32;20073;-77
2022/07/07 11:08:06;;;;;;;21.17;2.53;;;;;;;30.83;24.23;98823.84;4486282;32;20087;-78
2022/07/07 11:10:52;;;;;;;6.50;2.10;;;;;;;30.75;24.64;98824.94;4463527;32;20690;-77
2022/07/07 11:13:21;;;;;;;6.40;1.80;;;;;;;31.14;24.02;98825.88;4459442;32;20455;-77
2022/07/07 11:15:49;;;;;;;11.40;2.33;;;;;;;31.28;23.95;98824.75;4486454;32;20084;-77
2022/07/07 11:18:18;;;;;;;8.48;2.00;;;;;;;31.29;24.19;98820.16;4486312;32;20115;-77
2022/07/07 11:20:51;;;;;;;6.70;1.85;;;;;;;31.41;24.13;98815.69;4486305;32;20118;-77
2022/07/07 11:23:16;;;;;;;19.77;3.95;;;;;;;31.61;23.72;98815.59;4486342;32;20085;-78
2022/07/07 11:25:42;;;;;;;30.52;4.53;;;;;;;31.62;23.85;98811.84;4486496;32;20314;-77
2022/07/07 11:28:09;;;;;;;15.73;3.03;;;;;;;31.48;23.90;98810.22;4472165;32;20135;-75
2022/07/07 11:30:35;;;;;;;9.27;1.90;;;;;;;31.13;24.21;98811.44;4486436;32;20115;-74
2022/07/07 11:33:02;;;;;;;6.83;1.90;;;;;;;31.24;24.32;98811.81;4486192;32;20088;-75
2022/07/07 11:35:37;;;;;;;6.77;2.00;;;;;;;31.24;24.03;98804.47;4471968;32;20096;-74